sensor_id;sensor_type;location;lat;lon;timestamp;temperature;humidity
14101;DHT22;7127;49.372;8.166;2023-04-03T00:00:58;8.90;49.80
14101;DHT22;7127;49.372;8.166;2023-04-03T00:03:27;8.80;49.70
14101;DHT22;7127;49.372;8.166;2023-04-03T00:05:54;8.80;49.50
14101;DHT22;7127;49.372;8.166;2023-04-03T00:08:21;8.60;49.40
14101;DHT22;7127;49.372;8.166;2023-04-03T00:10:48;8.60;49.40
14101;DHT22;7127;49.372;8.166;2023-04-03T00:13:16;8.50;49.50
14101;DHT22;7127;49.372;8.166;2023-04-03T00:15:43;8.30;49.30
14101;DHT22;7127;49.372;8.166;2023-04-03T00:18:10;8.20;49.40
14101;DHT22;7127;49.372;8.166;2023-04-03T00:20:38;8.20;49.60
14101;DHT22;7127;49.372;8.166;2023-04-03T00:23:05;8.00;49.30
14101;DHT22;7127;49.372;8.166;2023-04-03T00:25:33;8.00;49.30
14101;DHT22;7127;49.372;8.166;2023-04-03T00:28:00;8.00;49.40
14101;DHT22;7127;49.372;8.166;2023-04-03T00:30:27;7.80;49.70
14101;DHT22;7127;49.372;8.166;2023-04-03T00:32:54;7.70;49.80
14101;DHT22;7127;49.372;8.166;2023-04-03T00:35:22;7.70;49.70
14101;DHT22;7127;49.372;8.166;2023-04-03T00:37:52;7.60;49.50
14101;DHT22;7127;49.372;8.166;2023-04-03T00:40:21;7.60;49.50
14101;DHT22;7127;49.372;8.166;2023-04-03T00:42:53;7.60;49.60
14101;DHT22;7127;49.372;8.166;2023-04-03T00:45:33;7.90;50.00
14101;DHT22;7127;49.372;8.166;2023-04-03T00:48:03;7.40;49.70
14101;DHT22;7127;49.372;8.166;2023-04-03T00:50:32;7.40;49.90
14101;DHT22;7127;49.372;8.166;2023-04-03T00:53:01;7.40;49.90
14101;DHT22;7127;49.372;8.166;2023-04-03T00:55:29;7.30;49.80
14101;DHT22;7127;49.372;8.166;2023-04-03T00:57:56;7.30;50.10
14101;DHT22;7127;49.372;8.166;2023-04-03T01:00:24;7.30;50.10
14101;DHT22;7127;49.372;8.166;2023-04-03T01:02:52;7.30;49.90
14101;DHT22;7127;49.372;8.166;2023-04-03T01:05:20;7.60;50.30
14101;DHT22;7127;49.372;8.166;2023-04-03T01:07:49;7.30;50.30
14101;DHT22;7127;49.372;8.166;2023-04-03T01:10:18;7.30;50.20
14101;DHT22;7127;49.372;8.166;2023-04-03T01:12:48;7.70;50.50
14101;DHT22;7127;49.372;8.166;2023-04-03T01:15:17;7.30;50.80
14101;DHT22;7127;49.372;8.166;2023-04-03T01:17:46;7.30;50.00
14101;DHT22;7127;49.372;8.166;2023-04-03T01:20:36;7.30;50.20
14101;DHT22;7127;49.372;8.166;2023-04-03T01:26:00;7.30;50.40
14101;DHT22;7127;49.372;8.166;2023-04-03T01:28:29;7.20;50.40
14101;DHT22;7127;49.372;8.166;2023-04-03T01:31:02;7.30;50.50
14101;DHT22;7127;49.372;8.166;2023-04-03T01:33:34;7.30;50.40
14101;DHT22;7127;49.372;8.166;2023-04-03T01:36:01;7.90;50.90
14101;DHT22;7127;49.372;8.166;2023-04-03T01:38:28;7.30;50.40
14101;DHT22;7127;49.372;8.166;2023-04-03T01:40:55;7.30;50.40
14101;DHT22;7127;49.372;8.166;2023-04-03T01:43:22;7.30;50.40
14101;DHT22;7127;49.372;8.166;2023-04-03T01:45:48;7.30;50.40
14101;DHT22;7127;49.372;8.166;2023-04-03T01:48:16;7.20;50.30
14101;DHT22;7127;49.372;8.166;2023-04-03T01:50:44;7.30;50.40
14101;DHT22;7127;49.372;8.166;2023-04-03T01:53:11;7.30;50.50
14101;DHT22;7127;49.372;8.166;2023-04-03T01:55:38;7.30;50.40
14101;DHT22;7127;49.372;8.166;2023-04-03T01:58:05;7.20;50.50
14101;DHT22;7127;49.372;8.166;2023-04-03T02:00:32;7.20;50.60
14101;DHT22;7127;49.372;8.166;2023-04-03T02:02:59;7.20;50.60
14101;DHT22;7127;49.372;8.166;2023-04-03T02:05:26;7.20;50.60
14101;DHT22;7127;49.372;8.166;2023-04-03T02:07:54;7.20;50.60
14101;DHT22;7127;49.372;8.166;2023-04-03T02:10:22;7.20;50.60
14101;DHT22;7127;49.372;8.166;2023-04-03T02:12:48;7.20;50.60
14101;DHT22;7127;49.372;8.166;2023-04-03T02:15:16;7.20;50.70
14101;DHT22;7127;49.372;8.166;2023-04-03T02:17:43;7.20;50.70
14101;DHT22;7127;49.372;8.166;2023-04-03T02:20:10;7.60;51.10
14101;DHT22;7127;49.372;8.166;2023-04-03T02:22:37;7.20;50.90
14101;DHT22;7127;49.372;8.166;2023-04-03T02:25:05;7.20;50.90
14101;DHT22;7127;49.372;8.166;2023-04-03T02:27:32;7.10;50.80
14101;DHT22;7127;49.372;8.166;2023-04-03T02:29:59;7.20;50.90
14101;DHT22;7127;49.372;8.166;2023-04-03T02:32:26;7.20;50.90
14101;DHT22;7127;49.372;8.166;2023-04-03T02:34:53;7.20;50.90
14101;DHT22;7127;49.372;8.166;2023-04-03T02:37:20;7.40;51.00
14101;DHT22;7127;49.372;8.166;2023-04-03T02:39:47;7.20;51.00
14101;DHT22;7127;49.372;8.166;2023-04-03T02:42:15;7.10;50.90
14101;DHT22;7127;49.372;8.166;2023-04-03T02:44:42;7.50;51.20
14101;DHT22;7127;49.372;8.166;2023-04-03T02:47:10;7.60;51.30
14101;DHT22;7127;49.372;8.166;2023-04-03T02:49:37;7.20;51.00
14101;DHT22;7127;49.372;8.166;2023-04-03T02:52:04;7.00;50.90
14101;DHT22;7127;49.372;8.166;2023-04-03T02:54:31;7.00;50.90
14101;DHT22;7127;49.372;8.166;2023-04-03T02:56:57;7.00;51.00
14101;DHT22;7127;49.372;8.166;2023-04-03T02:59:26;7.10;51.10
14101;DHT22;7127;49.372;8.166;2023-04-03T03:01:53;7.10;51.10
14101;DHT22;7127;49.372;8.166;2023-04-03T03:04:20;7.00;51.00
14101;DHT22;7127;49.372;8.166;2023-04-03T03:06:49;7.00;51.10
14101;DHT22;7127;49.372;8.166;2023-04-03T03:09:16;7.00;51.20
14101;DHT22;7127;49.372;8.166;2023-04-03T03:11:42;6.90;51.00
14101;DHT22;7127;49.372;8.166;2023-04-03T03:14:09;6.90;51.10
14101;DHT22;7127;49.372;8.166;2023-04-03T03:16:38;6.90;51.10
14101;DHT22;7127;49.372;8.166;2023-04-03T03:19:04;6.80;51.20
14101;DHT22;7127;49.372;8.166;2023-04-03T03:21:32;6.80;51.20
14101;DHT22;7127;49.372;8.166;2023-04-03T03:23:59;6.80;51.20
14101;DHT22;7127;49.372;8.166;2023-04-03T03:26:27;6.80;51.30
14101;DHT22;7127;49.372;8.166;2023-04-03T03:28:54;6.80;51.30
14101;DHT22;7127;49.372;8.166;2023-04-03T03:31:21;6.70;51.30
14101;DHT22;7127;49.372;8.166;2023-04-03T03:33:49;7.20;51.70
14101;DHT22;7127;49.372;8.166;2023-04-03T03:36:16;6.70;51.30
14101;DHT22;7127;49.372;8.166;2023-04-03T03:38:43;6.70;51.30
14101;DHT22;7127;49.372;8.166;2023-04-03T03:41:10;7.00;51.60
14101;DHT22;7127;49.372;8.166;2023-04-03T03:43:37;6.70;51.40
14101;DHT22;7127;49.372;8.166;2023-04-03T03:46:04;6.70;51.40
14101;DHT22;7127;49.372;8.166;2023-04-03T03:48:31;6.70;51.50
14101;DHT22;7127;49.372;8.166;2023-04-03T03:50:59;6.90;51.60
14101;DHT22;7127;49.372;8.166;2023-04-03T03:53:26;6.60;51.50
14101;DHT22;7127;49.372;8.166;2023-04-03T03:55:53;6.70;51.50
14101;DHT22;7127;49.372;8.166;2023-04-03T03:58:19;6.60;51.40
14101;DHT22;7127;49.372;8.166;2023-04-03T04:00:47;6.60;51.40
14101;DHT22;7127;49.372;8.166;2023-04-03T04:03:14;6.60;51.50
14101;DHT22;7127;49.372;8.166;2023-04-03T04:05:40;6.80;51.70
14101;DHT22;7127;49.372;8.166;2023-04-03T04:08:09;6.50;51.50
14101;DHT22;7127;49.372;8.166;2023-04-03T04:10:37;6.60;51.50
14101;DHT22;7127;49.372;8.166;2023-04-03T04:13:04;6.70;51.70
14101;DHT22;7127;49.372;8.166;2023-04-03T04:15:31;6.60;51.50
14101;DHT22;7127;49.372;8.166;2023-04-03T04:17:58;6.50;51.50
14101;DHT22;7127;49.372;8.166;2023-04-03T04:20:25;6.50;51.50
14101;DHT22;7127;49.372;8.166;2023-04-03T04:22:52;7.10;52.00
14101;DHT22;7127;49.372;8.166;2023-04-03T04:25:20;6.50;51.60
14101;DHT22;7127;49.372;8.166;2023-04-03T04:27:47;6.50;51.70
14101;DHT22;7127;49.372;8.166;2023-04-03T04:30:14;6.40;51.70
14101;DHT22;7127;49.372;8.166;2023-04-03T04:32:41;6.50;51.70
14101;DHT22;7127;49.372;8.166;2023-04-03T04:35:08;6.40;51.70
14101;DHT22;7127;49.372;8.166;2023-04-03T04:37:35;6.40;51.70
14101;DHT22;7127;49.372;8.166;2023-04-03T04:40:02;6.40;51.70
14101;DHT22;7127;49.372;8.166;2023-04-03T04:42:30;6.40;52.30
14101;DHT22;7127;49.372;8.166;2023-04-03T04:44:57;6.40;51.70
14101;DHT22;7127;49.372;8.166;2023-04-03T04:47:24;6.40;51.70
14101;DHT22;7127;49.372;8.166;2023-04-03T04:49:51;6.30;51.60
14101;DHT22;7127;49.372;8.166;2023-04-03T04:52:18;6.30;51.70
14101;DHT22;7127;49.372;8.166;2023-04-03T04:54:45;6.40;51.80
14101;DHT22;7127;49.372;8.166;2023-04-03T04:57:12;6.30;51.70
14101;DHT22;7127;49.372;8.166;2023-04-03T04:59:40;6.30;51.70
14101;DHT22;7127;49.372;8.166;2023-04-03T05:02:07;6.40;51.80
14101;DHT22;7127;49.372;8.166;2023-04-03T05:04:34;6.40;51.80
14101;DHT22;7127;49.372;8.166;2023-04-03T05:07:01;6.60;52.60
14101;DHT22;7127;49.372;8.166;2023-04-03T05:09:28;6.50;52.00
14101;DHT22;7127;49.372;8.166;2023-04-03T05:11:55;6.40;51.90
14101;DHT22;7127;49.372;8.166;2023-04-03T05:14:22;6.30;51.80
14101;DHT22;7127;49.372;8.166;2023-04-03T05:16:51;6.60;52.10
14101;DHT22;7127;49.372;8.166;2023-04-03T05:19:19;7.20;52.60
14101;DHT22;7127;49.372;8.166;2023-04-03T05:21:46;6.40;52.00
14101;DHT22;7127;49.372;8.166;2023-04-03T05:24:14;6.60;52.20
14101;DHT22;7127;49.372;8.166;2023-04-03T05:26:41;6.80;52.40
14101;DHT22;7127;49.372;8.166;2023-04-03T05:29:08;6.40;52.30
14101;DHT22;7127;49.372;8.166;2023-04-03T05:31:35;6.50;52.40
14101;DHT22;7127;49.372;8.166;2023-04-03T05:34:04;6.60;52.50
14101;DHT22;7127;49.372;8.166;2023-04-03T05:36:31;6.50;52.50
14101;DHT22;7127;49.372;8.166;2023-04-03T05:38:58;6.60;52.60
14101;DHT22;7127;49.372;8.166;2023-04-03T05:41:25;6.70;52.60
14101;DHT22;7127;49.372;8.166;2023-04-03T05:43:52;6.70;52.60
14101;DHT22;7127;49.372;8.166;2023-04-03T05:46:19;6.80;52.70
14101;DHT22;7127;49.372;8.166;2023-04-03T05:48:47;6.80;52.70
14101;DHT22;7127;49.372;8.166;2023-04-03T05:51:18;6.90;52.70
14101;DHT22;7127;49.372;8.166;2023-04-03T05:53:45;6.90;52.70
14101;DHT22;7127;49.372;8.166;2023-04-03T05:56:14;7.00;52.70
14101;DHT22;7127;49.372;8.166;2023-04-03T05:58:41;7.00;52.70
14101;DHT22;7127;49.372;8.166;2023-04-03T06:01:07;7.30;52.90
14101;DHT22;7127;49.372;8.166;2023-04-03T06:03:34;7.10;52.80
14101;DHT22;7127;49.372;8.166;2023-04-03T06:06:03;7.30;52.90
14101;DHT22;7127;49.372;8.166;2023-04-03T06:08:32;7.20;52.70
14101;DHT22;7127;49.372;8.166;2023-04-03T06:10:59;7.30;52.80
14101;DHT22;7127;49.372;8.166;2023-04-03T06:13:27;7.30;52.70
14101;DHT22;7127;49.372;8.166;2023-04-03T06:15:54;7.30;52.70
14101;DHT22;7127;49.372;8.166;2023-04-03T06:18:21;7.50;52.90
14101;DHT22;7127;49.372;8.166;2023-04-03T06:20:48;7.40;52.90
14101;DHT22;7127;49.372;8.166;2023-04-03T06:23:15;7.50;53.00
14101;DHT22;7127;49.372;8.166;2023-04-03T06:25:44;7.50;53.00
14101;DHT22;7127;49.372;8.166;2023-04-03T06:28:11;7.50;53.00
14101;DHT22;7127;49.372;8.166;2023-04-03T06:30:38;7.50;53.10
14101;DHT22;7127;49.372;8.166;2023-04-03T06:33:05;7.60;53.10
14101;DHT22;7127;49.372;8.166;2023-04-03T06:35:32;7.50;53.20
14101;DHT22;7127;49.372;8.166;2023-04-03T06:38:00;7.60;53.20
14101;DHT22;7127;49.372;8.166;2023-04-03T06:40:27;7.70;53.40
14101;DHT22;7127;49.372;8.166;2023-04-03T06:42:56;7.70;53.50
14101;DHT22;7127;49.372;8.166;2023-04-03T06:45:23;7.70;53.50
14101;DHT22;7127;49.372;8.166;2023-04-03T06:47:51;7.70;53.40
14101;DHT22;7127;49.372;8.166;2023-04-03T06:50:18;7.90;53.50
14101;DHT22;7127;49.372;8.166;2023-04-03T06:52:45;7.80;53.40
14101;DHT22;7127;49.372;8.166;2023-04-03T06:55:12;7.90;53.60
14101;DHT22;7127;49.372;8.166;2023-04-03T06:57:39;7.80;53.40
14101;DHT22;7127;49.372;8.166;2023-04-03T07:00:08;7.80;53.60
14101;DHT22;7127;49.372;8.166;2023-04-03T07:02:36;7.80;53.60
14101;DHT22;7127;49.372;8.166;2023-04-03T07:05:03;7.80;53.60
14101;DHT22;7127;49.372;8.166;2023-04-03T07:07:32;7.90;53.70
14101;DHT22;7127;49.372;8.166;2023-04-03T07:09:59;8.10;53.80
14101;DHT22;7127;49.372;8.166;2023-04-03T07:12:26;7.90;53.70
14101;DHT22;7127;49.372;8.166;2023-04-03T07:14:53;7.90;53.80
14101;DHT22;7127;49.372;8.166;2023-04-03T07:17:22;7.90;53.90
14101;DHT22;7127;49.372;8.166;2023-04-03T07:19:49;8.40;54.20
14101;DHT22;7127;49.372;8.166;2023-04-03T07:22:16;8.00;53.90
14101;DHT22;7127;49.372;8.166;2023-04-03T07:24:42;8.00;53.90
14101;DHT22;7127;49.372;8.166;2023-04-03T07:27:09;8.10;53.90
14101;DHT22;7127;49.372;8.166;2023-04-03T07:29:38;8.10;53.90
14101;DHT22;7127;49.372;8.166;2023-04-03T07:32:05;8.20;53.90
14101;DHT22;7127;49.372;8.166;2023-04-03T07:34:34;8.20;53.90
14101;DHT22;7127;49.372;8.166;2023-04-03T07:37:01;8.40;54.10
14101;DHT22;7127;49.372;8.166;2023-04-03T07:39:28;8.40;54.10
14101;DHT22;7127;49.372;8.166;2023-04-03T07:41:56;8.40;54.10
14101;DHT22;7127;49.372;8.166;2023-04-03T07:44:23;8.40;54.10
14101;DHT22;7127;49.372;8.166;2023-04-03T07:46:50;8.50;54.10
14101;DHT22;7127;49.372;8.166;2023-04-03T07:49:17;8.70;54.20
14101;DHT22;7127;49.372;8.166;2023-04-03T07:51:45;8.60;54.00
14101;DHT22;7127;49.372;8.166;2023-04-03T07:54:14;8.70;53.90
14101;DHT22;7127;49.372;8.166;2023-04-03T07:56:40;8.60;53.80
14101;DHT22;7127;49.372;8.166;2023-04-03T07:59:08;8.80;53.80
14101;DHT22;7127;49.372;8.166;2023-04-03T08:01:36;8.70;53.80
14101;DHT22;7127;49.372;8.166;2023-04-03T08:04:10;8.70;53.80
14101;DHT22;7127;49.372;8.166;2023-04-03T08:06:56;8.70;53.90
14101;DHT22;7127;49.372;8.166;2023-04-03T08:09:30;8.80;53.90
14101;DHT22;7127;49.372;8.166;2023-04-03T08:12:09;8.90;54.00
14101;DHT22;7127;49.372;8.166;2023-04-03T08:14:37;8.90;53.90
14101;DHT22;7127;49.372;8.166;2023-04-03T08:17:05;9.00;54.00
14101;DHT22;7127;49.372;8.166;2023-04-03T08:19:35;9.10;53.90
14101;DHT22;7127;49.372;8.166;2023-04-03T08:22:04;9.00;53.80
14101;DHT22;7127;49.372;8.166;2023-04-03T08:24:32;9.10;53.70
14101;DHT22;7127;49.372;8.166;2023-04-03T08:26:59;9.40;54.00
14101;DHT22;7127;49.372;8.166;2023-04-03T08:29:27;9.30;53.90
14101;DHT22;7127;49.372;8.166;2023-04-03T08:31:54;9.20;53.80
14101;DHT22;7127;49.372;8.166;2023-04-03T08:34:21;9.40;53.80
14101;DHT22;7127;49.372;8.166;2023-04-03T08:36:48;9.30;53.50
14101;DHT22;7127;49.372;8.166;2023-04-03T08:39:17;9.40;53.40
14101;DHT22;7127;49.372;8.166;2023-04-03T08:41:45;9.50;53.40
14101;DHT22;7127;49.372;8.166;2023-04-03T08:44:17;9.50;53.30
14101;DHT22;7127;49.372;8.166;2023-04-03T08:47:02;9.60;53.20
14101;DHT22;7127;49.372;8.166;2023-04-03T08:49:32;9.70;53.10
14101;DHT22;7127;49.372;8.166;2023-04-03T08:52:03;9.70;52.90
14101;DHT22;7127;49.372;8.166;2023-04-03T08:54:35;9.80;52.40
14101;DHT22;7127;49.372;8.166;2023-04-03T08:57:04;9.80;52.10
14101;DHT22;7127;49.372;8.166;2023-04-03T08:59:34;9.80;52.10
14101;DHT22;7127;49.372;8.166;2023-04-03T09:02:12;10.00;51.40
14101;DHT22;7127;49.372;8.166;2023-04-03T09:04:44;9.90;52.10
14101;DHT22;7127;49.372;8.166;2023-04-03T09:07:14;9.90;51.90
14101;DHT22;7127;49.372;8.166;2023-04-03T09:09:44;10.00;50.70
14101;DHT22;7127;49.372;8.166;2023-04-03T09:12:18;10.10;50.50
14101;DHT22;7127;49.372;8.166;2023-04-03T09:14:56;10.20;50.10
14101;DHT22;7127;49.372;8.166;2023-04-03T09:17:33;10.40;50.00
14101;DHT22;7127;49.372;8.166;2023-04-03T09:20:08;10.40;49.70
14101;DHT22;7127;49.372;8.166;2023-04-03T09:22:40;10.50;49.60
14101;DHT22;7127;49.372;8.166;2023-04-03T09:25:13;10.60;49.30
14101;DHT22;7127;49.372;8.166;2023-04-03T09:27:42;10.60;48.70
14101;DHT22;7127;49.372;8.166;2023-04-03T09:30:13;10.60;48.20
14101;DHT22;7127;49.372;8.166;2023-04-03T09:32:43;10.70;48.50
14101;DHT22;7127;49.372;8.166;2023-04-03T09:35:18;10.70;48.60
14101;DHT22;7127;49.372;8.166;2023-04-03T09:37:46;10.70;48.50
14101;DHT22;7127;49.372;8.166;2023-04-03T09:40:40;10.80;48.70
14101;DHT22;7127;49.372;8.166;2023-04-03T09:43:24;10.90;48.10
14101;DHT22;7127;49.372;8.166;2023-04-03T09:45:52;11.00;48.10
14101;DHT22;7127;49.372;8.166;2023-04-03T09:48:27;11.10;48.60
14101;DHT22;7127;49.372;8.166;2023-04-03T09:50:57;11.20;48.50
14101;DHT22;7127;49.372;8.166;2023-04-03T09:53:29;11.30;48.00
14101;DHT22;7127;49.372;8.166;2023-04-03T09:55:58;11.40;47.30
14101;DHT22;7127;49.372;8.166;2023-04-03T09:58:29;11.50;47.20
14101;DHT22;7127;49.372;8.166;2023-04-03T10:00:57;11.50;46.10
14101;DHT22;7127;49.372;8.166;2023-04-03T10:03:28;11.70;46.50
14101;DHT22;7127;49.372;8.166;2023-04-03T10:05:55;11.70;46.20
14101;DHT22;7127;49.372;8.166;2023-04-03T10:08:26;11.70;46.40
14101;DHT22;7127;49.372;8.166;2023-04-03T10:11:10;11.70;46.10
14101;DHT22;7127;49.372;8.166;2023-04-03T10:13:50;11.90;46.10
14101;DHT22;7127;49.372;8.166;2023-04-03T10:16:18;11.90;45.60
14101;DHT22;7127;49.372;8.166;2023-04-03T10:18:51;11.80;45.50
14101;DHT22;7127;49.372;8.166;2023-04-03T10:21:29;11.80;45.30
14101;DHT22;7127;49.372;8.166;2023-04-03T10:24:08;11.80;44.40
14101;DHT22;7127;49.372;8.166;2023-04-03T10:26:45;11.70;44.80
14101;DHT22;7127;49.372;8.166;2023-04-03T10:29:21;11.70;44.90
14101;DHT22;7127;49.372;8.166;2023-04-03T10:31:59;11.70;45.00
14101;DHT22;7127;49.372;8.166;2023-04-03T10:34:32;11.70;45.30
14101;DHT22;7127;49.372;8.166;2023-04-03T10:37:09;12.00;45.60
14101;DHT22;7127;49.372;8.166;2023-04-03T10:39:41;11.60;45.10
14101;DHT22;7127;49.372;8.166;2023-04-03T10:42:18;11.70;45.50
14101;DHT22;7127;49.372;8.166;2023-04-03T10:45:01;11.70;44.90
14101;DHT22;7127;49.372;8.166;2023-04-03T10:47:41;11.70;43.30
14101;DHT22;7127;49.372;8.166;2023-04-03T10:50:26;11.60;42.50
14101;DHT22;7127;49.372;8.166;2023-04-03T10:52:57;11.60;42.70
14101;DHT22;7127;49.372;8.166;2023-04-03T10:55:34;11.50;44.10
14101;DHT22;7127;49.372;8.166;2023-04-03T10:58:04;11.60;44.20
14101;DHT22;7127;49.372;8.166;2023-04-03T11:00:36;11.70;44.20
14101;DHT22;7127;49.372;8.166;2023-04-03T11:03:08;11.60;44.10
14101;DHT22;7127;49.372;8.166;2023-04-03T11:05:41;11.60;44.50
14101;DHT22;7127;49.372;8.166;2023-04-03T11:08:13;11.70;44.50
14101;DHT22;7127;49.372;8.166;2023-04-03T11:10:45;11.80;44.50
14101;DHT22;7127;49.372;8.166;2023-04-03T11:13:18;11.80;43.90
14101;DHT22;7127;49.372;8.166;2023-04-03T11:15:49;11.80;43.10
14101;DHT22;7127;49.372;8.166;2023-04-03T11:18:20;11.80;42.30
14101;DHT22;7127;49.372;8.166;2023-04-03T11:20:53;11.80;42.50
14101;DHT22;7127;49.372;8.166;2023-04-03T11:23:25;11.70;42.50
14101;DHT22;7127;49.372;8.166;2023-04-03T11:25:55;11.80;43.40
14101;DHT22;7127;49.372;8.166;2023-04-03T11:28:26;11.70;43.60
14101;DHT22;7127;49.372;8.166;2023-04-03T11:31:01;11.80;43.90
14101;DHT22;7127;49.372;8.166;2023-04-03T11:33:37;11.80;43.90
14101;DHT22;7127;49.372;8.166;2023-04-03T11:36:09;11.80;42.20
14101;DHT22;7127;49.372;8.166;2023-04-03T11:38:41;11.90;43.70
14101;DHT22;7127;49.372;8.166;2023-04-03T11:41:09;11.90;43.80
14101;DHT22;7127;49.372;8.166;2023-04-03T11:43:43;12.00;43.70
14101;DHT22;7127;49.372;8.166;2023-04-03T11:46:22;12.10;43.80
14101;DHT22;7127;49.372;8.166;2023-04-03T11:48:51;12.10;42.50
14101;DHT22;7127;49.372;8.166;2023-04-03T11:51:41;12.10;42.40
14101;DHT22;7127;49.372;8.166;2023-04-03T11:54:48;12.20;42.60
14101;DHT22;7127;49.372;8.166;2023-04-03T12:00:56;12.20;39.80
14101;DHT22;7127;49.372;8.166;2023-04-03T12:06:49;12.30;42.30
14101;DHT22;7127;49.372;8.166;2023-04-03T12:09:28;12.40;42.70
14101;DHT22;7127;49.372;8.166;2023-04-03T12:11:57;12.40;42.70
14101;DHT22;7127;49.372;8.166;2023-04-03T12:14:26;12.50;42.70
14101;DHT22;7127;49.372;8.166;2023-04-03T12:16:56;12.60;42.60
14101;DHT22;7127;49.372;8.166;2023-04-03T12:19:32;12.60;42.40
14101;DHT22;7127;49.372;8.166;2023-04-03T12:22:12;12.70;42.40
14101;DHT22;7127;49.372;8.166;2023-04-03T12:24:40;12.70;42.20
14101;DHT22;7127;49.372;8.166;2023-04-03T12:27:30;12.80;42.30
14101;DHT22;7127;49.372;8.166;2023-04-03T12:30:13;12.80;42.00
14101;DHT22;7127;49.372;8.166;2023-04-03T12:32:58;12.80;41.70
14101;DHT22;7127;49.372;8.166;2023-04-03T12:35:34;12.80;41.50
14101;DHT22;7127;49.372;8.166;2023-04-03T12:38:30;12.80;41.70
14101;DHT22;7127;49.372;8.166;2023-04-03T12:41:11;12.80;41.40
14101;DHT22;7127;49.372;8.166;2023-04-03T12:43:49;12.80;41.90
14101;DHT22;7127;49.372;8.166;2023-04-03T12:46:18;12.90;41.90
14101;DHT22;7127;49.372;8.166;2023-04-03T12:48:52;12.90;41.80
14101;DHT22;7127;49.372;8.166;2023-04-03T12:51:22;12.90;41.70
14101;DHT22;7127;49.372;8.166;2023-04-03T12:53:56;12.90;42.00
14101;DHT22;7127;49.372;8.166;2023-04-03T12:56:26;13.00;41.80
14101;DHT22;7127;49.372;8.166;2023-04-03T12:58:56;13.00;41.20
14101;DHT22;7127;49.372;8.166;2023-04-03T13:01:39;13.00;41.20
14101;DHT22;7127;49.372;8.166;2023-04-03T13:04:09;13.10;41.20
14101;DHT22;7127;49.372;8.166;2023-04-03T13:06:39;13.10;41.30
14101;DHT22;7127;49.372;8.166;2023-04-03T13:09:18;13.10;41.30
14101;DHT22;7127;49.372;8.166;2023-04-03T13:11:48;13.20;41.00
14101;DHT22;7127;49.372;8.166;2023-04-03T13:14:18;13.20;41.10
14101;DHT22;7127;49.372;8.166;2023-04-03T13:16:53;13.20;41.10
14101;DHT22;7127;49.372;8.166;2023-04-03T13:19:23;13.20;40.70
14101;DHT22;7127;49.372;8.166;2023-04-03T13:21:54;13.20;40.80
14101;DHT22;7127;49.372;8.166;2023-04-03T13:24:24;13.20;40.70
14101;DHT22;7127;49.372;8.166;2023-04-03T13:26:52;13.20;40.50
14101;DHT22;7127;49.372;8.166;2023-04-03T13:29:23;13.20;40.50
14101;DHT22;7127;49.372;8.166;2023-04-03T13:31:53;13.30;40.60
14101;DHT22;7127;49.372;8.166;2023-04-03T13:34:24;13.20;40.50
14101;DHT22;7127;49.372;8.166;2023-04-03T13:36:58;13.20;40.40
14101;DHT22;7127;49.372;8.166;2023-04-03T13:39:27;13.20;40.10
14101;DHT22;7127;49.372;8.166;2023-04-03T13:41:55;13.20;40.50
14101;DHT22;7127;49.372;8.166;2023-04-03T13:44:31;13.30;40.30
14101;DHT22;7127;49.372;8.166;2023-04-03T13:47:00;13.20;40.10
14101;DHT22;7127;49.372;8.166;2023-04-03T13:49:32;13.20;40.50
14101;DHT22;7127;49.372;8.166;2023-04-03T13:52:00;13.20;40.50
14101;DHT22;7127;49.372;8.166;2023-04-03T13:54:31;13.10;40.40
14101;DHT22;7127;49.372;8.166;2023-04-03T13:57:00;13.10;40.40
14101;DHT22;7127;49.372;8.166;2023-04-03T13:59:29;13.10;40.40
14101;DHT22;7127;49.372;8.166;2023-04-03T14:02:13;13.10;40.10
14101;DHT22;7127;49.372;8.166;2023-04-03T14:04:52;13.10;39.80
14101;DHT22;7127;49.372;8.166;2023-04-03T14:07:22;13.00;39.80
14101;DHT22;7127;49.372;8.166;2023-04-03T14:09:50;13.00;40.00
14101;DHT22;7127;49.372;8.166;2023-04-03T14:12:20;13.00;39.90
14101;DHT22;7127;49.372;8.166;2023-04-03T14:14:48;13.00;39.90
14101;DHT22;7127;49.372;8.166;2023-04-03T14:17:16;13.00;39.90
14101;DHT22;7127;49.372;8.166;2023-04-03T14:19:44;13.00;40.00
14101;DHT22;7127;49.372;8.166;2023-04-03T14:22:17;13.00;40.10
14101;DHT22;7127;49.372;8.166;2023-04-03T14:24:45;13.00;40.10
14101;DHT22;7127;49.372;8.166;2023-04-03T14:27:17;12.90;40.10
14101;DHT22;7127;49.372;8.166;2023-04-03T14:29:45;12.90;40.40
14101;DHT22;7127;49.372;8.166;2023-04-03T14:32:14;12.90;39.70
14101;DHT22;7127;49.372;8.166;2023-04-03T14:34:41;12.80;40.30
14101;DHT22;7127;49.372;8.166;2023-04-03T14:37:11;12.80;39.60
14101;DHT22;7127;49.372;8.166;2023-04-03T14:39:40;12.70;39.60
14101;DHT22;7127;49.372;8.166;2023-04-03T14:42:12;12.70;39.70
14101;DHT22;7127;49.372;8.166;2023-04-03T14:44:39;12.70;39.80
14101;DHT22;7127;49.372;8.166;2023-04-03T14:47:10;12.60;40.30
14101;DHT22;7127;49.372;8.166;2023-04-03T14:49:36;12.60;39.70
14101;DHT22;7127;49.372;8.166;2023-04-03T14:52:03;12.60;40.00
14101;DHT22;7127;49.372;8.166;2023-04-03T14:54:30;12.60;40.00
14101;DHT22;7127;49.372;8.166;2023-04-03T14:57:00;12.60;40.20
14101;DHT22;7127;49.372;8.166;2023-04-03T14:59:28;12.70;40.10
14101;DHT22;7127;49.372;8.166;2023-04-03T15:01:55;12.70;40.00
14101;DHT22;7127;49.372;8.166;2023-04-03T15:04:22;12.70;39.70
14101;DHT22;7127;49.372;8.166;2023-04-03T15:06:49;12.70;39.40
14101;DHT22;7127;49.372;8.166;2023-04-03T15:09:20;12.70;39.00
14101;DHT22;7127;49.372;8.166;2023-04-03T15:11:48;12.70;38.80
14101;DHT22;7127;49.372;8.166;2023-04-03T15:14:16;12.60;38.50
14101;DHT22;7127;49.372;8.166;2023-04-03T15:16:43;12.60;38.50
14101;DHT22;7127;49.372;8.166;2023-04-03T15:19:11;12.50;38.50
14101;DHT22;7127;49.372;8.166;2023-04-03T15:21:38;12.40;38.60
14101;DHT22;7127;49.372;8.166;2023-04-03T15:24:05;12.30;38.70
14101;DHT22;7127;49.372;8.166;2023-04-03T15:26:32;12.30;38.80
14101;DHT22;7127;49.372;8.166;2023-04-03T15:28:59;12.30;38.80
14101;DHT22;7127;49.372;8.166;2023-04-03T15:31:27;12.30;38.90
14101;DHT22;7127;49.372;8.166;2023-04-03T15:33:55;12.30;38.30
14101;DHT22;7127;49.372;8.166;2023-04-03T15:36:21;12.30;38.90
14101;DHT22;7127;49.372;8.166;2023-04-03T15:38:48;12.30;38.90
14101;DHT22;7127;49.372;8.166;2023-04-03T15:41:15;12.30;39.00
14101;DHT22;7127;49.372;8.166;2023-04-03T15:43:43;12.30;38.80
14101;DHT22;7127;49.372;8.166;2023-04-03T15:46:09;12.30;38.70
14101;DHT22;7127;49.372;8.166;2023-04-03T15:48:38;12.30;38.60
14101;DHT22;7127;49.372;8.166;2023-04-03T15:51:05;12.30;38.50
14101;DHT22;7127;49.372;8.166;2023-04-03T15:53:32;12.20;38.30
14101;DHT22;7127;49.372;8.166;2023-04-03T15:55:59;12.20;38.40
14101;DHT22;7127;49.372;8.166;2023-04-03T15:58:26;12.00;38.10
14101;DHT22;7127;49.372;8.166;2023-04-03T16:00:53;12.10;38.30
14101;DHT22;7127;49.372;8.166;2023-04-03T16:03:21;12.10;38.30
14101;DHT22;7127;49.372;8.166;2023-04-03T16:05:51;12.10;38.30
14101;DHT22;7127;49.372;8.166;2023-04-03T16:08:18;12.10;38.30
14101;DHT22;7127;49.372;8.166;2023-04-03T16:10:45;12.10;38.30
14101;DHT22;7127;49.372;8.166;2023-04-03T16:13:13;12.10;38.20
14101;DHT22;7127;49.372;8.166;2023-04-03T16:15:40;12.10;37.80
14101;DHT22;7127;49.372;8.166;2023-04-03T16:18:08;12.10;38.60
14101;DHT22;7127;49.372;8.166;2023-04-03T16:20:35;12.10;38.00